sensor_id;sensor_type;location;lat;lon;timestamp;P1;durP1;ratioP1;P2;durP2;ratioP2
63016;SDS011;50274;45.640;11.756;2022-09-23T00:00:31;5.95;;;2.53;;
63016;SDS011;50274;45.640;11.756;2022-09-23T00:02:57;7.78;;;2.50;;
63016;SDS011;50274;45.640;11.756;2022-09-23T00:05:27;6.70;;;2.23;;
63016;SDS011;50274;45.640;11.756;2022-09-23T00:07:54;4.88;;;2.53;;
63016;SDS011;50274;45.640;11.756;2022-09-23T00:10:20;6.13;;;2.15;;
63016;SDS011;50274;45.640;11.756;2022-09-23T00:12:47;5.70;;;2.35;;
63016;SDS011;50274;45.640;11.756;2022-09-23T00:15:13;5.03;;;2.37;;
63016;SDS011;50274;45.640;11.756;2022-09-23T00:17:40;5.32;;;2.30;;
63016;SDS011;50274;45.640;11.756;2022-09-23T00:20:06;5.88;;;2.33;;
63016;SDS011;50274;45.640;11.756;2022-09-23T00:22:33;4.80;;;2.28;;
63016;SDS011;50274;45.640;11.756;2022-09-23T00:25:01;4.70;;;2.50;;
63016;SDS011;50274;45.640;11.756;2022-09-23T00:27:30;5.53;;;2.47;;
63016;SDS011;50274;45.640;11.756;2022-09-23T00:29:58;5.15;;;2.35;;
63016;SDS011;50274;45.640;11.756;2022-09-23T00:32:25;5.35;;;2.50;;
63016;SDS011;50274;45.640;11.756;2022-09-23T00:34:51;5.35;;;2.47;;
63016;SDS011;50274;45.640;11.756;2022-09-23T00:37:17;10.13;;;2.97;;
63016;SDS011;50274;45.640;11.756;2022-09-23T00:39:44;6.47;;;2.60;;
63016;SDS011;50274;45.640;11.756;2022-09-23T00:42:17;5.97;;;2.30;;
63016;SDS011;50274;45.640;11.756;2022-09-23T00:49:47;5.22;;;2.75;;
63016;SDS011;50274;45.640;11.756;2022-09-23T00:52:25;5.10;;;2.50;;
63016;SDS011;50274;45.640;11.756;2022-09-23T00:54:52;5.97;;;2.67;;
63016;SDS011;50274;45.640;11.756;2022-09-23T00:57:21;5.32;;;2.58;;
63016;SDS011;50274;45.640;11.756;2022-09-23T00:59:49;5.35;;;2.78;;
63016;SDS011;50274;45.640;11.756;2022-09-23T01:02:16;5.40;;;2.80;;
63016;SDS011;50274;45.640;11.756;2022-09-23T01:04:45;7.03;;;2.80;;
63016;SDS011;50274;45.640;11.756;2022-09-23T01:07:13;5.22;;;2.80;;
63016;SDS011;50274;45.640;11.756;2022-09-23T01:09:38;5.53;;;2.47;;
63016;SDS011;50274;45.640;11.756;2022-09-23T01:15:01;6.40;;;2.40;;
63016;SDS011;50274;45.640;11.756;2022-09-23T01:33:38;5.00;;;3.00;;
63016;SDS011;50274;45.640;11.756;2022-09-23T01:36:42;5.47;;;3.08;;
63016;SDS011;50274;45.640;11.756;2022-09-23T01:42:00;5.97;;;3.00;;
63016;SDS011;50274;45.640;11.756;2022-09-23T01:44:52;6.38;;;2.60;;
63016;SDS011;50274;45.640;11.756;2022-09-23T01:47:21;5.07;;;2.67;;
63016;SDS011;50274;45.640;11.756;2022-09-23T01:50:17;6.07;;;3.33;;
63016;SDS011;50274;45.640;11.756;2022-09-23T01:53:03;5.55;;;2.35;;
63016;SDS011;50274;45.640;11.756;2022-09-23T01:55:35;5.83;;;2.83;;
63016;SDS011;50274;45.640;11.756;2022-09-23T01:58:13;6.85;;;3.40;;
63016;SDS011;50274;45.640;11.756;2022-09-23T02:00:41;5.53;;;3.10;;
63016;SDS011;50274;45.640;11.756;2022-09-23T02:06:31;6.45;;;2.83;;
63016;SDS011;50274;45.640;11.756;2022-09-23T02:09:10;5.33;;;2.90;;
63016;SDS011;50274;45.640;11.756;2022-09-23T02:11:38;5.13;;;2.70;;
63016;SDS011;50274;45.640;11.756;2022-09-23T02:14:12;5.20;;;2.67;;
63016;SDS011;50274;45.640;11.756;2022-09-23T02:16:51;8.32;;;3.30;;
63016;SDS011;50274;45.640;11.756;2022-09-23T02:19:29;5.95;;;3.13;;
63016;SDS011;50274;45.640;11.756;2022-09-23T02:22:07;6.97;;;3.20;;
63016;SDS011;50274;45.640;11.756;2022-09-23T02:24:36;5.97;;;3.30;;
63016;SDS011;50274;45.640;11.756;2022-09-23T02:32:16;5.45;;;3.55;;
63016;SDS011;50274;45.640;11.756;2022-09-23T02:35:11;6.70;;;3.07;;
63016;SDS011;50274;45.640;11.756;2022-09-23T02:37:45;5.45;;;3.08;;
63016;SDS011;50274;45.640;11.756;2022-09-23T02:43:00;6.22;;;2.75;;
63016;SDS011;50274;45.640;11.756;2022-09-23T02:45:28;4.80;;;3.00;;
63016;SDS011;50274;45.640;11.756;2022-09-23T02:48:02;5.67;;;3.07;;
63016;SDS011;50274;45.640;11.756;2022-09-23T02:50:32;9.50;;;3.92;;
63016;SDS011;50274;45.640;11.756;2022-09-23T02:52:58;6.63;;;3.10;;
63016;SDS011;50274;45.640;11.756;2022-09-23T02:55:25;6.05;;;3.25;;
63016;SDS011;50274;45.640;11.756;2022-09-23T02:57:57;5.85;;;3.60;;
63016;SDS011;50274;45.640;11.756;2022-09-23T03:00:26;6.40;;;3.17;;
63016;SDS011;50274;45.640;11.756;2022-09-23T03:03:12;5.90;;;3.28;;
63016;SDS011;50274;45.640;11.756;2022-09-23T03:05:55;5.50;;;3.22;;
63016;SDS011;50274;45.640;11.756;2022-09-23T03:08:28;5.70;;;2.97;;
63016;SDS011;50274;45.640;11.756;2022-09-23T03:11:26;5.88;;;2.50;;
63016;SDS011;50274;45.640;11.756;2022-09-23T03:16:52;6.13;;;3.65;;
63016;SDS011;50274;45.640;11.756;2022-09-23T03:22:09;8.45;;;3.80;;
63016;SDS011;50274;45.640;11.756;2022-09-23T03:24:38;5.40;;;3.33;;
63016;SDS011;50274;45.640;11.756;2022-09-23T03:27:09;6.93;;;3.40;;
63016;SDS011;50274;45.640;11.756;2022-09-23T03:29:42;7.03;;;3.40;;
63016;SDS011;50274;45.640;11.756;2022-09-23T03:32:12;6.53;;;3.20;;
63016;SDS011;50274;45.640;11.756;2022-09-23T03:34:40;5.45;;;3.10;;
63016;SDS011;50274;45.640;11.756;2022-09-23T03:37:10;5.97;;;3.83;;
63016;SDS011;50274;45.640;11.756;2022-09-23T03:39:48;5.73;;;3.00;;
63016;SDS011;50274;45.640;11.756;2022-09-23T03:42:21;6.63;;;3.83;;
63016;SDS011;50274;45.640;11.756;2022-09-23T03:44:54;5.90;;;2.97;;
63016;SDS011;50274;45.640;11.756;2022-09-23T03:47:22;7.53;;;4.00;;
63016;SDS011;50274;45.640;11.756;2022-09-23T03:49:49;6.18;;;3.83;;
63016;SDS011;50274;45.640;11.756;2022-09-23T03:52:17;6.37;;;3.83;;
63016;SDS011;50274;45.640;11.756;2022-09-23T03:54:44;7.15;;;4.25;;
63016;SDS011;50274;45.640;11.756;2022-09-23T03:57:10;7.07;;;3.13;;
63016;SDS011;50274;45.640;11.756;2022-09-23T03:59:37;6.20;;;3.50;;
63016;SDS011;50274;45.640;11.756;2022-09-23T04:02:03;7.55;;;3.47;;
63016;SDS011;50274;45.640;11.756;2022-09-23T04:04:31;6.60;;;3.10;;
63016;SDS011;50274;45.640;11.756;2022-09-23T04:06:58;7.90;;;2.80;;
63016;SDS011;50274;45.640;11.756;2022-09-23T04:09:24;6.78;;;3.08;;
63016;SDS011;50274;45.640;11.756;2022-09-23T04:11:51;5.40;;;2.97;;
63016;SDS011;50274;45.640;11.756;2022-09-23T04:14:18;6.30;;;3.40;;
63016;SDS011;50274;45.640;11.756;2022-09-23T04:16:45;4.93;;;2.90;;
63016;SDS011;50274;45.640;11.756;2022-09-23T04:19:11;6.65;;;3.47;;
63016;SDS011;50274;45.640;11.756;2022-09-23T04:21:38;6.45;;;3.50;;
63016;SDS011;50274;45.640;11.756;2022-09-23T04:24:05;5.63;;;2.88;;
63016;SDS011;50274;45.640;11.756;2022-09-23T04:26:31;6.38;;;3.53;;
63016;SDS011;50274;45.640;11.756;2022-09-23T04:28:58;6.13;;;3.40;;
63016;SDS011;50274;45.640;11.756;2022-09-23T04:31:24;6.40;;;3.13;;
63016;SDS011;50274;45.640;11.756;2022-09-23T04:33:51;6.63;;;2.88;;
63016;SDS011;50274;45.640;11.756;2022-09-23T04:36:17;5.15;;;2.92;;
63016;SDS011;50274;45.640;11.756;2022-09-23T04:38:44;7.00;;;3.23;;
63016;SDS011;50274;45.640;11.756;2022-09-23T04:41:10;5.80;;;3.28;;
63016;SDS011;50274;45.640;11.756;2022-09-23T04:43:37;5.55;;;3.05;;
63016;SDS011;50274;45.640;11.756;2022-09-23T04:46:04;6.47;;;3.00;;
63016;SDS011;50274;45.640;11.756;2022-09-23T04:48:31;5.90;;;3.17;;
63016;SDS011;50274;45.640;11.756;2022-09-23T04:51:11;6.17;;;2.80;;
63016;SDS011;50274;45.640;11.756;2022-09-23T04:53:39;6.00;;;3.05;;
63016;SDS011;50274;45.640;11.756;2022-09-23T04:56:07;5.55;;;2.97;;
63016;SDS011;50274;45.640;11.756;2022-09-23T04:58:35;7.00;;;2.70;;
63016;SDS011;50274;45.640;11.756;2022-09-23T05:01:10;7.00;;;3.28;;
63016;SDS011;50274;45.640;11.756;2022-09-23T05:03:37;6.33;;;2.97;;
63016;SDS011;50274;45.640;11.756;2022-09-23T05:06:03;6.50;;;3.08;;
63016;SDS011;50274;45.640;11.756;2022-09-23T05:08:29;6.40;;;2.97;;
63016;SDS011;50274;45.640;11.756;2022-09-23T05:10:59;6.30;;;2.80;;
63016;SDS011;50274;45.640;11.756;2022-09-23T05:13:26;7.57;;;3.42;;
63016;SDS011;50274;45.640;11.756;2022-09-23T05:15:56;4.60;;;2.53;;
63016;SDS011;50274;45.640;11.756;2022-09-23T05:18:22;6.53;;;2.95;;
63016;SDS011;50274;45.640;11.756;2022-09-23T05:20:52;5.68;;;2.88;;
63016;SDS011;50274;45.640;11.756;2022-09-23T05:23:19;7.00;;;3.30;;
63016;SDS011;50274;45.640;11.756;2022-09-23T05:25:45;6.40;;;2.83;;
63016;SDS011;50274;45.640;11.756;2022-09-23T05:28:12;4.80;;;2.75;;
63016;SDS011;50274;45.640;11.756;2022-09-23T05:30:44;6.25;;;3.05;;
63016;SDS011;50274;45.640;11.756;2022-09-23T05:33:10;8.80;;;3.63;;
63016;SDS011;50274;45.640;11.756;2022-09-23T05:35:36;7.50;;;3.70;;
63016;SDS011;50274;45.640;11.756;2022-09-23T05:38:02;7.30;;;3.53;;
63016;SDS011;50274;45.640;11.756;2022-09-23T05:40:28;7.30;;;3.77;;
63016;SDS011;50274;45.640;11.756;2022-09-23T05:42:53;6.25;;;3.35;;
63016;SDS011;50274;45.640;11.756;2022-09-23T05:45:20;6.53;;;3.13;;
63016;SDS011;50274;45.640;11.756;2022-09-23T05:47:46;7.00;;;3.93;;
63016;SDS011;50274;45.640;11.756;2022-09-23T05:50:11;7.78;;;3.03;;
63016;SDS011;50274;45.640;11.756;2022-09-23T05:52:37;8.27;;;3.13;;
63016;SDS011;50274;45.640;11.756;2022-09-23T05:55:03;7.60;;;2.87;;
63016;SDS011;50274;45.640;11.756;2022-09-23T05:57:29;5.88;;;2.90;;
63016;SDS011;50274;45.640;11.756;2022-09-23T05:59:55;6.53;;;3.40;;
63016;SDS011;50274;45.640;11.756;2022-09-23T06:02:21;5.85;;;3.00;;
63016;SDS011;50274;45.640;11.756;2022-09-23T06:04:46;5.13;;;2.70;;
63016;SDS011;50274;45.640;11.756;2022-09-23T06:07:12;6.90;;;3.42;;
63016;SDS011;50274;45.640;11.756;2022-09-23T06:09:38;6.63;;;3.70;;
63016;SDS011;50274;45.640;11.756;2022-09-23T06:12:04;6.73;;;3.30;;
63016;SDS011;50274;45.640;11.756;2022-09-23T06:14:30;7.68;;;4.10;;
63016;SDS011;50274;45.640;11.756;2022-09-23T06:16:56;6.75;;;3.80;;
63016;SDS011;50274;45.640;11.756;2022-09-23T06:19:22;7.37;;;3.53;;
63016;SDS011;50274;45.640;11.756;2022-09-23T06:21:47;7.97;;;4.38;;
63016;SDS011;50274;45.640;11.756;2022-09-23T06:24:13;6.73;;;3.50;;
63016;SDS011;50274;45.640;11.756;2022-09-23T06:26:39;7.80;;;3.53;;
63016;SDS011;50274;45.640;11.756;2022-09-23T06:29:09;9.15;;;4.47;;
63016;SDS011;50274;45.640;11.756;2022-09-23T06:31:36;7.38;;;4.50;;
63016;SDS011;50274;45.640;11.756;2022-09-23T06:34:02;7.27;;;4.13;;
63016;SDS011;50274;45.640;11.756;2022-09-23T06:36:28;6.97;;;4.15;;
63016;SDS011;50274;45.640;11.756;2022-09-23T06:38:54;8.75;;;5.15;;
63016;SDS011;50274;45.640;11.756;2022-09-23T06:41:20;10.15;;;5.25;;
63016;SDS011;50274;45.640;11.756;2022-09-23T06:43:45;11.83;;;5.40;;
63016;SDS011;50274;45.640;11.756;2022-09-23T06:46:13;10.45;;;5.05;;
63016;SDS011;50274;45.640;11.756;2022-09-23T06:48:40;9.70;;;5.88;;
63016;SDS011;50274;45.640;11.756;2022-09-23T06:51:08;8.65;;;5.60;;
63016;SDS011;50274;45.640;11.756;2022-09-23T06:53:36;10.93;;;6.00;;
63016;SDS011;50274;45.640;11.756;2022-09-23T06:56:03;9.48;;;5.50;;
63016;SDS011;50274;45.640;11.756;2022-09-23T06:58:31;9.23;;;5.22;;
63016;SDS011;50274;45.640;11.756;2022-09-23T07:01:02;9.20;;;5.50;;
63016;SDS011;50274;45.640;11.756;2022-09-23T07:03:33;7.35;;;5.03;;
63016;SDS011;50274;45.640;11.756;2022-09-23T07:05:59;9.17;;;4.83;;
63016;SDS011;50274;45.640;11.756;2022-09-23T07:08:26;9.35;;;4.72;;
63016;SDS011;50274;45.640;11.756;2022-09-23T07:10:57;11.77;;;5.05;;
63016;SDS011;50274;45.640;11.756;2022-09-23T07:13:24;8.82;;;5.65;;
63016;SDS011;50274;45.640;11.756;2022-09-23T07:15:51;7.63;;;4.90;;
63016;SDS011;50274;45.640;11.756;2022-09-23T07:18:18;10.23;;;4.70;;
63016;SDS011;50274;45.640;11.756;2022-09-23T07:20:46;10.88;;;6.25;;
63016;SDS011;50274;45.640;11.756;2022-09-23T07:23:12;8.48;;;5.50;;
63016;SDS011;50274;45.640;11.756;2022-09-23T07:25:38;10.57;;;5.35;;
63016;SDS011;50274;45.640;11.756;2022-09-23T07:28:04;7.07;;;4.37;;
63016;SDS011;50274;45.640;11.756;2022-09-23T07:30:30;8.75;;;4.57;;
63016;SDS011;50274;45.640;11.756;2022-09-23T07:32:57;7.47;;;4.57;;
63016;SDS011;50274;45.640;11.756;2022-09-23T07:35:22;8.20;;;5.13;;
63016;SDS011;50274;45.640;11.756;2022-09-23T07:37:50;7.90;;;5.07;;
63016;SDS011;50274;45.640;11.756;2022-09-23T07:40:15;9.00;;;5.38;;
63016;SDS011;50274;45.640;11.756;2022-09-23T07:42:41;10.77;;;5.20;;
63016;SDS011;50274;45.640;11.756;2022-09-23T07:45:07;10.17;;;4.70;;
63016;SDS011;50274;45.640;11.756;2022-09-23T07:47:33;8.70;;;4.82;;
63016;SDS011;50274;45.640;11.756;2022-09-23T07:49:59;8.82;;;5.30;;
63016;SDS011;50274;45.640;11.756;2022-09-23T07:52:25;8.27;;;5.00;;
63016;SDS011;50274;45.640;11.756;2022-09-23T07:54:51;6.35;;;4.63;;
63016;SDS011;50274;45.640;11.756;2022-09-23T07:57:17;9.75;;;5.22;;
63016;SDS011;50274;45.640;11.756;2022-09-23T07:59:42;9.63;;;4.07;;
63016;SDS011;50274;45.640;11.756;2022-09-23T08:02:09;8.02;;;4.40;;
63016;SDS011;50274;45.640;11.756;2022-09-23T08:04:36;7.93;;;5.55;;
63016;SDS011;50274;45.640;11.756;2022-09-23T08:07:02;8.00;;;5.00;;
63016;SDS011;50274;45.640;11.756;2022-09-23T08:09:31;8.18;;;5.15;;
63016;SDS011;50274;45.640;11.756;2022-09-23T08:12:16;9.43;;;4.95;;
63016;SDS011;50274;45.640;11.756;2022-09-23T08:14:42;10.55;;;4.90;;
63016;SDS011;50274;45.640;11.756;2022-09-23T08:17:08;10.13;;;4.80;;
63016;SDS011;50274;45.640;11.756;2022-09-23T08:19:35;9.75;;;5.40;;
63016;SDS011;50274;45.640;11.756;2022-09-23T08:22:01;10.50;;;4.50;;
63016;SDS011;50274;45.640;11.756;2022-09-23T08:24:27;6.23;;;3.13;;
63016;SDS011;50274;45.640;11.756;2022-09-23T08:26:54;9.15;;;3.78;;
63016;SDS011;50274;45.640;11.756;2022-09-23T08:29:21;5.50;;;2.63;;
63016;SDS011;50274;45.640;11.756;2022-09-23T08:31:48;5.38;;;2.42;;
63016;SDS011;50274;45.640;11.756;2022-09-23T08:34:15;7.00;;;2.80;;
63016;SDS011;50274;45.640;11.756;2022-09-23T08:36:42;5.38;;;2.40;;
63016;SDS011;50274;45.640;11.756;2022-09-23T08:39:11;6.13;;;2.22;;
63016;SDS011;50274;45.640;11.756;2022-09-23T08:41:45;4.85;;;2.05;;
63016;SDS011;50274;45.640;11.756;2022-09-23T08:44:20;4.25;;;2.00;;
63016;SDS011;50274;45.640;11.756;2022-09-23T08:46:56;5.63;;;2.60;;
63016;SDS011;50274;45.640;11.756;2022-09-23T08:49:35;5.88;;;1.92;;
63016;SDS011;50274;45.640;11.756;2022-09-23T08:55:08;6.63;;;2.58;;
63016;SDS011;50274;45.640;11.756;2022-09-23T09:00:28;7.77;;;2.20;;
63016;SDS011;50274;45.640;11.756;2022-09-23T09:03:20;5.50;;;1.52;;
63016;SDS011;50274;45.640;11.756;2022-09-23T09:05:49;5.70;;;1.90;;
63016;SDS011;50274;45.640;11.756;2022-09-23T09:08:19;5.45;;;2.25;;
63016;SDS011;50274;45.640;11.756;2022-09-23T09:10:49;5.03;;;2.13;;
63016;SDS011;50274;45.640;11.756;2022-09-23T09:13:32;6.07;;;2.00;;
63016;SDS011;50274;45.640;11.756;2022-09-23T09:19:03;5.88;;;2.40;;
63016;SDS011;50274;45.640;11.756;2022-09-23T09:21:36;4.88;;;1.80;;
63016;SDS011;50274;45.640;11.756;2022-09-23T09:24:11;5.35;;;2.20;;
63016;SDS011;50274;45.640;11.756;2022-09-23T09:26:42;4.27;;;2.10;;
63016;SDS011;50274;45.640;11.756;2022-09-23T09:31:40;4.15;;;1.85;;
63016;SDS011;50274;45.640;11.756;2022-09-23T09:34:23;6.60;;;2.53;;
63016;SDS011;50274;45.640;11.756;2022-09-23T09:37:08;4.83;;;2.43;;
63016;SDS011;50274;45.640;11.756;2022-09-23T09:39:39;6.88;;;2.15;;
63016;SDS011;50274;45.640;11.756;2022-09-23T09:42:05;6.05;;;2.30;;
63016;SDS011;50274;45.640;11.756;2022-09-23T09:44:42;7.28;;;2.20;;
63016;SDS011;50274;45.640;11.756;2022-09-23T09:47:19;5.40;;;2.00;;
63016;SDS011;50274;45.640;11.756;2022-09-23T09:50:04;5.15;;;2.55;;
63016;SDS011;50274;45.640;11.756;2022-09-23T09:52:30;7.35;;;2.95;;
63016;SDS011;50274;45.640;11.756;2022-09-23T09:57:41;5.20;;;1.80;;
63016;SDS011;50274;45.640;11.756;2022-09-23T10:02:51;4.53;;;1.50;;
63016;SDS011;50274;45.640;11.756;2022-09-23T10:05:26;3.60;;;1.30;;
63016;SDS011;50274;45.640;11.756;2022-09-23T10:07:52;5.05;;;1.52;;
63016;SDS011;50274;45.640;11.756;2022-09-23T10:10:20;4.20;;;1.60;;
63016;SDS011;50274;45.640;11.756;2022-09-23T10:12:49;4.57;;;2.23;;
63016;SDS011;50274;45.640;11.756;2022-09-23T10:15:26;5.07;;;2.20;;
63016;SDS011;50274;45.640;11.756;2022-09-23T10:17:55;5.30;;;2.08;;
63016;SDS011;50274;45.640;11.756;2022-09-23T10:20:21;5.63;;;2.00;;
63016;SDS011;50274;45.640;11.756;2022-09-23T10:22:47;4.93;;;2.13;;
63016;SDS011;50274;45.640;11.756;2022-09-23T10:25:19;5.03;;;2.28;;
63016;SDS011;50274;45.640;11.756;2022-09-23T10:27:50;4.20;;;2.08;;
63016;SDS011;50274;45.640;11.756;2022-09-23T10:30:23;4.27;;;2.00;;
63016;SDS011;50274;45.640;11.756;2022-09-23T10:32:51;4.97;;;1.80;;
63016;SDS011;50274;45.640;11.756;2022-09-23T10:35:20;6.28;;;2.53;;
63016;SDS011;50274;45.640;11.756;2022-09-23T10:37:48;5.38;;;2.00;;
63016;SDS011;50274;45.640;11.756;2022-09-23T10:46:50;5.75;;;2.17;;
63016;SDS011;50274;45.640;11.756;2022-09-23T10:57:41;4.93;;;2.07;;
63016;SDS011;50274;45.640;11.756;2022-09-23T11:00:41;7.15;;;3.30;;
63016;SDS011;50274;45.640;11.756;2022-09-23T11:17:11;6.85;;;2.85;;
63016;SDS011;50274;45.640;11.756;2022-09-23T11:20:01;5.97;;;2.53;;
63016;SDS011;50274;45.640;11.756;2022-09-23T11:25:46;5.00;;;2.00;;
63016;SDS011;50274;45.640;11.756;2022-09-23T11:34:27;6.40;;;1.85;;
63016;SDS011;50274;45.640;11.756;2022-09-23T11:37:04;5.78;;;2.67;;
63016;SDS011;50274;45.640;11.756;2022-09-23T11:42:39;5.88;;;2.25;;
63016;SDS011;50274;45.640;11.756;2022-09-23T11:45:24;6.22;;;2.63;;
63016;SDS011;50274;45.640;11.756;2022-09-23T11:48:02;5.45;;;2.10;;
63016;SDS011;50274;45.640;11.756;2022-09-23T11:50:39;4.88;;;2.17;;
63016;SDS011;50274;45.640;11.756;2022-09-23T11:58:29;7.25;;;2.30;;
63016;SDS011;50274;45.640;11.756;2022-09-23T12:01:12;4.82;;;2.22;;
63016;SDS011;50274;45.640;11.756;2022-09-23T12:04:27;4.88;;;2.15;;
63016;SDS011;50274;45.640;11.756;2022-09-23T12:06:59;5.47;;;2.00;;
63016;SDS011;50274;45.640;11.756;2022-09-23T12:12:50;5.50;;;1.83;;
63016;SDS011;50274;45.640;11.756;2022-09-23T12:15:45;7.18;;;2.00;;
63016;SDS011;50274;45.640;11.756;2022-09-23T12:18:25;4.20;;;1.80;;
63016;SDS011;50274;45.640;11.756;2022-09-23T12:21:04;4.93;;;1.63;;
63016;SDS011;50274;45.640;11.756;2022-09-23T12:26:04;6.30;;;2.00;;
63016;SDS011;50274;45.640;11.756;2022-09-23T12:28:39;5.82;;;1.73;;
63016;SDS011;50274;45.640;11.756;2022-09-23T12:31:11;4.07;;;1.25;;
63016;SDS011;50274;45.640;11.756;2022-09-23T12:33:46;4.80;;;1.20;;
63016;SDS011;50274;45.640;11.756;2022-09-23T12:39:13;3.42;;;1.30;;
63016;SDS011;50274;45.640;11.756;2022-09-23T12:41:45;5.00;;;1.40;;
63016;SDS011;50274;45.640;11.756;2022-09-23T12:44:28;6.13;;;2.00;;
63016;SDS011;50274;45.640;11.756;2022-09-23T12:49:50;5.57;;;1.90;;
63016;SDS011;50274;45.640;11.756;2022-09-23T12:54:46;3.92;;;1.33;;
63016;SDS011;50274;45.640;11.756;2022-09-23T13:02:36;4.13;;;1.15;;
63016;SDS011;50274;45.640;11.756;2022-09-23T13:05:10;3.88;;;1.13;;
63016;SDS011;50274;45.640;11.756;2022-09-23T13:08:10;4.35;;;1.35;;
63016;SDS011;50274;45.640;11.756;2022-09-23T13:10:53;6.30;;;1.73;;
63016;SDS011;50274;45.640;11.756;2022-09-23T13:13:37;4.45;;;1.70;;
63016;SDS011;50274;45.640;11.756;2022-09-23T13:16:13;5.15;;;1.50;;
63016;SDS011;50274;45.640;11.756;2022-09-23T13:18:56;3.97;;;1.13;;
63016;SDS011;50274;45.640;11.756;2022-09-23T13:24:15;5.63;;;1.60;;
63016;SDS011;50274;45.640;11.756;2022-09-23T13:26:52;4.35;;;1.48;;
63016;SDS011;50274;45.640;11.756;2022-09-23T13:29:20;4.05;;;1.27;;
63016;SDS011;50274;45.640;11.756;2022-09-23T13:31:50;4.25;;;1.67;;
63016;SDS011;50274;45.640;11.756;2022-09-23T13:34:20;4.05;;;1.60;;
63016;SDS011;50274;45.640;11.756;2022-09-23T13:36:52;5.47;;;1.70;;
63016;SDS011;50274;45.640;11.756;2022-09-23T13:39:21;4.78;;;1.67;;
63016;SDS011;50274;45.640;11.756;2022-09-23T13:41:49;3.83;;;1.48;;
63016;SDS011;50274;45.640;11.756;2022-09-23T13:44:19;4.32;;;1.35;;
63016;SDS011;50274;45.640;11.756;2022-09-23T13:46:47;4.15;;;1.52;;
63016;SDS011;50274;45.640;11.756;2022-09-23T13:51:52;5.45;;;1.90;;
63016;SDS011;50274;45.640;11.756;2022-09-23T13:54:30;3.70;;;1.20;;
63016;SDS011;50274;45.640;11.756;2022-09-23T13:57:00;5.25;;;2.00;;
63016;SDS011;50274;45.640;11.756;2022-09-23T13:59:35;4.13;;;1.80;;
63016;SDS011;50274;45.640;11.756;2022-09-23T14:02:03;5.23;;;1.70;;
63016;SDS011;50274;45.640;11.756;2022-09-23T14:04:32;3.40;;;1.20;;
63016;SDS011;50274;45.640;11.756;2022-09-23T14:06:58;6.13;;;1.50;;
63016;SDS011;50274;45.640;11.756;2022-09-23T14:09:24;4.30;;;1.63;;
63016;SDS011;50274;45.640;11.756;2022-09-23T14:11:52;4.88;;;1.42;;
63016;SDS011;50274;45.640;11.756;2022-09-23T14:14:20;6.95;;;1.75;;
63016;SDS011;50274;45.640;11.756;2022-09-23T14:16:47;3.80;;;1.52;;
63016;SDS011;50274;45.640;11.756;2022-09-23T14:19:21;5.13;;;2.45;;
63016;SDS011;50274;45.640;11.756;2022-09-23T14:21:51;4.63;;;2.10;;
63016;SDS011;50274;45.640;11.756;2022-09-23T14:24:22;4.13;;;1.58;;
63016;SDS011;50274;45.640;11.756;2022-09-23T14:27:18;4.85;;;1.80;;
63016;SDS011;50274;45.640;11.756;2022-09-23T14:29:51;4.38;;;1.48;;
63016;SDS011;50274;45.640;11.756;2022-09-23T14:32:21;4.35;;;1.60;;
63016;SDS011;50274;45.640;11.756;2022-09-23T14:34:50;6.87;;;2.30;;
63016;SDS011;50274;45.640;11.756;2022-09-23T14:42:50;7.22;;;1.90;;
63016;SDS011;50274;45.640;11.756;2022-09-23T14:45:23;4.28;;;1.50;;
63016;SDS011;50274;45.640;11.756;2022-09-23T14:47:52;4.57;;;1.27;;
63016;SDS011;50274;45.640;11.756;2022-09-23T14:50:24;6.75;;;1.98;;
63016;SDS011;50274;45.640;11.756;2022-09-23T14:55:43;5.05;;;1.73;;
63016;SDS011;50274;45.640;11.756;2022-09-23T14:58:14;4.70;;;1.38;;
63016;SDS011;50274;45.640;11.756;2022-09-23T15:00:51;4.10;;;1.50;;
63016;SDS011;50274;45.640;11.756;2022-09-23T15:03:24;5.13;;;1.65;;
63016;SDS011;50274;45.640;11.756;2022-09-23T15:05:58;4.85;;;2.10;;
63016;SDS011;50274;45.640;11.756;2022-09-23T15:08:28;3.50;;;1.38;;
63016;SDS011;50274;45.640;11.756;2022-09-23T15:10:57;8.57;;;1.98;;
63016;SDS011;50274;45.640;11.756;2022-09-23T15:13:28;4.83;;;1.60;;
63016;SDS011;50274;45.640;11.756;2022-09-23T15:15:56;8.32;;;1.50;;
63016;SDS011;50274;45.640;11.756;2022-09-23T15:18:24;3.92;;;1.30;;
63016;SDS011;50274;45.640;11.756;2022-09-23T15:21:16;5.85;;;1.77;;
63016;SDS011;50274;45.640;11.756;2022-09-23T15:23:48;6.20;;;1.48;;
63016;SDS011;50274;45.640;11.756;2022-09-23T15:26:38;4.60;;;1.20;;
63016;SDS011;50274;45.640;11.756;2022-09-23T15:29:09;6.28;;;1.50;;
63016;SDS011;50274;45.640;11.756;2022-09-23T15:31:35;4.65;;;1.23;;
63016;SDS011;50274;45.640;11.756;2022-09-23T15:34:01;4.32;;;1.38;;
63016;SDS011;50274;45.640;11.756;2022-09-23T15:36:29;3.93;;;1.40;;
63016;SDS011;50274;45.640;11.756;2022-09-23T15:39:02;4.18;;;1.70;;
63016;SDS011;50274;45.640;11.756;2022-09-23T15:41:30;6.63;;;1.90;;
63016;SDS011;50274;45.640;11.756;2022-09-23T15:43:58;4.53;;;1.52;;
63016;SDS011;50274;45.640;11.756;2022-09-23T15:46:29;6.43;;;1.42;;
63016;SDS011;50274;45.640;11.756;2022-09-23T15:48:58;6.67;;;1.43;;
63016;SDS011;50274;45.640;11.756;2022-09-23T15:51:27;5.45;;;1.88;;
63016;SDS011;50274;45.640;11.756;2022-09-23T15:53:53;5.82;;;2.17;;
63016;SDS011;50274;45.640;11.756;2022-09-23T15:56:20;8.05;;;1.90;;
63016;SDS011;50274;45.640;11.756;2022-09-23T15:58:47;4.38;;;1.77;;
63016;SDS011;50274;45.640;11.756;2022-09-23T16:01:18;4.47;;;1.87;;
63016;SDS011;50274;45.640;11.756;2022-09-23T16:03:54;5.35;;;2.03;;
63016;SDS011;50274;45.640;11.756;2022-09-23T16:06:19;4.35;;;1.88;;
63016;SDS011;50274;45.640;11.756;2022-09-23T16:08:46;4.40;;;1.77;;
63016;SDS011;50274;45.640;11.756;2022-09-23T16:11:20;5.70;;;1.92;;
63016;SDS011;50274;45.640;11.756;2022-09-23T16:13:51;4.97;;;1.67;;
63016;SDS011;50274;45.640;11.756;2022-09-23T16:16:17;3.65;;;1.05;;
63016;SDS011;50274;45.640;11.756;2022-09-23T16:18:46;5.45;;;2.20;;
63016;SDS011;50274;45.640;11.756;2022-09-23T16:21:15;6.00;;;2.63;;
63016;SDS011;50274;45.640;11.756;2022-09-23T16:23:43;6.80;;;2.88;;
63016;SDS011;50274;45.640;11.756;2022-09-23T16:28:56;7.63;;;2.70;;
63016;SDS011;50274;45.640;11.756;2022-09-23T16:31:24;5.22;;;2.75;;
63016;SDS011;50274;45.640;11.756;2022-09-23T16:33:51;7.60;;;2.80;;
63016;SDS011;50274;45.640;11.756;2022-09-23T16:38:51;9.03;;;3.20;;
63016;SDS011;50274;45.640;11.756;2022-09-23T16:41:24;10.20;;;3.10;;
63016;SDS011;50274;45.640;11.756;2022-09-23T16:43:53;7.22;;;2.97;;
63016;SDS011;50274;45.640;11.756;2022-09-23T16:46:21;7.80;;;3.58;;
63016;SDS011;50274;45.640;11.756;2022-09-23T16:48:52;6.72;;;3.50;;
63016;SDS011;50274;45.640;11.756;2022-09-23T16:51:22;8.90;;;4.07;;
63016;SDS011;50274;45.640;11.756;2022-09-23T16:53:50;8.88;;;3.72;;
63016;SDS011;50274;45.640;11.756;2022-09-23T16:56:18;8.43;;;3.40;;
63016;SDS011;50274;45.640;11.756;2022-09-23T16:58:46;8.88;;;3.53;;
63016;SDS011;50274;45.640;11.756;2022-09-23T17:01:14;7.65;;;3.38;;
63016;SDS011;50274;45.640;11.756;2022-09-23T17:04:03;5.60;;;2.53;;
63016;SDS011;50274;45.640;11.756;2022-09-23T17:06:33;6.18;;;2.70;;
63016;SDS011;50274;45.640;11.756;2022-09-23T17:08:59;9.25;;;2.95;;
63016;SDS011;50274;45.640;11.756;2022-09-23T17:11:27;5.85;;;2.58;;
63016;SDS011;50274;45.640;11.756;2022-09-23T17:13:56;7.80;;;3.25;;
63016;SDS011;50274;45.640;11.756;2022-09-23T17:16:28;7.53;;;3.00;;
63016;SDS011;50274;45.640;11.756;2022-09-23T17:18:58;6.43;;;2.90;;